createdAt,value
2022-11-14T00:01:15.646Z,2.85
2022-11-14T00:03:43.148Z,2.45
2022-11-14T00:06:10.516Z,2.67
2022-11-14T00:08:38.510Z,2.88
2022-11-14T00:11:06.012Z,2.70
2022-11-14T00:13:33.493Z,2.63
2022-11-14T00:16:01.012Z,3.13
2022-11-14T00:18:28.928Z,2.50
2022-11-14T00:20:56.596Z,2.90
2022-11-14T00:23:24.012Z,3.20
2022-11-14T00:25:51.613Z,3.47
2022-11-14T00:28:19.176Z,3.13
2022-11-14T00:30:48.731Z,3.25
2022-11-14T00:33:20.342Z,2.80
2022-11-14T00:35:54.590Z,3.20
2022-11-14T00:38:22.935Z,3.10
2022-11-14T00:40:50.694Z,3.03
2022-11-14T00:43:19.455Z,3.30
2022-11-14T00:45:48.664Z,2.97
2022-11-14T00:48:16.461Z,3.20
2022-11-14T00:50:44.578Z,3.10
2022-11-14T00:53:12.145Z,2.88
2022-11-14T00:55:40.195Z,3.50
2022-11-14T00:58:07.719Z,3.97
2022-11-14T01:00:35.402Z,3.53
2022-11-14T01:03:02.923Z,3.08
2022-11-14T01:05:30.465Z,3.20
2022-11-14T01:07:57.965Z,3.03
2022-11-14T01:10:25.921Z,3.10
2022-11-14T01:12:53.669Z,3.30
2022-11-14T01:15:21.283Z,3.00
2022-11-14T01:17:48.747Z,3.35
2022-11-14T01:20:17.404Z,2.72
2022-11-14T01:22:44.923Z,3.63
2022-11-14T01:25:12.412Z,2.78
2022-11-14T01:27:39.828Z,3.30
2022-11-14T01:30:07.972Z,3.80
2022-11-14T01:32:35.733Z,4.50
2022-11-14T01:35:03.283Z,3.78
2022-11-14T01:37:30.807Z,4.27
2022-11-14T01:39:58.511Z,3.72
2022-11-14T01:42:27.277Z,3.80
2022-11-14T01:44:55.279Z,2.83
2022-11-14T01:47:27.450Z,2.92
2022-11-14T01:50:01.191Z,2.63
2022-11-14T01:52:37.977Z,3.97
2022-11-14T01:55:08.416Z,3.90
2022-11-14T01:57:48.318Z,3.72
2022-11-14T02:00:16.192Z,2.57
2022-11-14T02:02:44.221Z,2.47
2022-11-14T02:05:15.615Z,3.25
2022-11-14T02:07:43.425Z,2.73
2022-11-14T02:10:17.081Z,2.87
2022-11-14T02:12:45.773Z,3.30
2022-11-14T02:15:15.062Z,3.30
2022-11-14T02:17:44.448Z,3.13
2022-11-14T02:20:12.113Z,3.07
2022-11-14T02:22:41.430Z,3.20
2022-11-14T02:25:12.378Z,3.28
2022-11-14T02:27:41.767Z,3.42
2022-11-14T02:30:14.472Z,3.93
2022-11-14T02:33:09.436Z,3.47
2022-11-14T02:35:29.572Z,3.13
2022-11-14T02:37:57.091Z,3.10
2022-11-14T02:40:24.617Z,3.30
2022-11-14T02:42:52.227Z,2.93
2022-11-14T02:45:21.018Z,3.28
2022-11-14T02:47:48.582Z,2.97
2022-11-14T02:50:16.588Z,3.13
2022-11-14T02:52:44.295Z,2.92
2022-11-14T02:55:11.692Z,3.33
2022-11-14T02:57:39.031Z,3.10
2022-11-14T03:00:13.311Z,3.60
2022-11-14T03:02:42.237Z,3.37
2022-11-14T03:05:09.857Z,3.30
2022-11-14T03:07:37.374Z,3.65
2022-11-14T03:10:05.724Z,4.00
2022-11-14T03:12:33.302Z,3.77
2022-11-14T03:15:01.139Z,3.53
2022-11-14T03:17:32.767Z,3.77
2022-11-14T03:20:00.618Z,3.95
2022-11-14T03:22:28.540Z,3.72
2022-11-14T03:24:56.062Z,3.50
2022-11-14T03:27:23.463Z,3.17
2022-11-14T03:29:50.870Z,3.53
2022-11-14T03:32:18.457Z,3.58
2022-11-14T03:34:45.985Z,3.65
2022-11-14T03:37:13.500Z,3.33
2022-11-14T03:39:40.942Z,3.58
2022-11-14T03:42:08.495Z,3.72
2022-11-14T03:44:36.170Z,3.70
2022-11-14T03:47:03.929Z,4.30
2022-11-14T03:49:33.592Z,3.95
2022-11-14T03:52:01.066Z,4.07
2022-11-14T03:54:30.454Z,4.40
2022-11-14T03:56:58.198Z,4.05
2022-11-14T03:59:26.715Z,4.38
2022-11-14T04:01:54.222Z,4.40
2022-11-14T04:04:21.789Z,4.28
2022-11-14T04:06:49.312Z,3.90
2022-11-14T04:09:16.722Z,4.10
2022-11-14T04:11:44.209Z,3.75
2022-11-14T04:14:11.714Z,4.00
2022-11-14T04:16:39.067Z,3.88
2022-11-14T04:19:06.560Z,3.95
2022-11-14T04:21:34.234Z,3.60
2022-11-14T04:24:04.823Z,4.32
2022-11-14T04:26:34.458Z,4.15
2022-11-14T04:29:02.008Z,3.90
2022-11-14T04:31:29.771Z,4.00
2022-11-14T04:33:58.485Z,4.38
2022-11-14T04:36:25.851Z,4.20
2022-11-14T04:38:53.210Z,3.90
2022-11-14T04:41:20.609Z,3.70
2022-11-14T04:43:50.839Z,4.32
2022-11-14T04:46:18.475Z,4.50
2022-11-14T04:48:46.180Z,4.05
2022-11-14T04:51:13.728Z,4.30
2022-11-14T04:53:41.276Z,3.97
2022-11-14T04:56:08.709Z,3.92
2022-11-14T04:58:36.387Z,3.75
2022-11-14T05:01:15.164Z,4.03
2022-11-14T05:03:42.799Z,3.75
2022-11-14T05:06:13.609Z,3.67
2022-11-14T05:08:41.065Z,3.83
2022-11-14T05:11:13.587Z,3.83
2022-11-14T05:13:41.612Z,3.33
2022-11-14T05:16:10.641Z,3.53
2022-11-14T05:18:44.285Z,3.70
2022-11-14T05:21:16.743Z,4.10
2022-11-14T05:23:44.306Z,4.28
2022-11-14T05:26:14.844Z,4.05
2022-11-14T05:28:42.804Z,4.38
2022-11-14T05:31:18.192Z,3.75
2022-11-14T05:33:47.388Z,4.00
2022-11-14T05:36:18.099Z,3.78
2022-11-14T05:38:45.841Z,4.20
2022-11-14T05:41:16.174Z,3.33
2022-11-14T05:43:44.847Z,3.75
2022-11-14T05:46:14.253Z,3.47
2022-11-14T05:48:43.069Z,3.10
2022-11-14T05:51:15.809Z,3.35
2022-11-14T05:53:56.745Z,3.70
2022-11-14T05:56:24.851Z,3.45
2022-11-14T05:58:55.947Z,3.20
2022-11-14T06:01:30.905Z,3.08
2022-11-14T06:03:59.768Z,3.42
2022-11-14T06:06:55.610Z,4.82
2022-11-14T06:15:21.667Z,3.85
2022-11-14T06:17:51.277Z,4.50
2022-11-14T06:26:08.816Z,4.40
2022-11-14T06:28:40.810Z,4.47
2022-11-14T06:31:18.603Z,5.05
2022-11-14T06:36:30.957Z,4.38
2022-11-14T06:56:06.209Z,3.75
2022-11-14T07:01:37.879Z,4.13
2022-11-14T07:07:06.608Z,4.15
2022-11-14T07:12:44.099Z,4.72
2022-11-14T07:15:15.304Z,4.25
2022-11-14T07:17:43.318Z,4.07
2022-11-14T07:31:59.598Z,4.25
2022-11-14T07:37:01.237Z,4.18
2022-11-14T07:39:29.365Z,3.92
2022-11-14T09:07:31.446Z,5.50
2022-11-14T09:13:20.657Z,6.07
2022-11-14T11:45:19.210Z,2.08
2022-11-14T11:47:54.996Z,2.78
2022-11-14T12:44:28.120Z,1.27
2022-11-14T12:47:07.826Z,1.40
2022-11-14T12:49:47.754Z,1.20
2022-11-14T12:52:49.607Z,1.30
2022-11-14T12:55:26.154Z,1.20
2022-11-14T12:58:10.195Z,1.30
2022-11-14T13:01:20.346Z,1.08
2022-11-14T13:04:10.711Z,1.30
2022-11-14T13:07:16.536Z,1.15
2022-11-14T13:10:10.208Z,1.30
2022-11-14T13:12:56.123Z,1.60
2022-11-14T13:15:47.442Z,1.00
2022-11-14T13:18:44.526Z,1.17
2022-11-14T13:21:47.583Z,1.15
2022-11-14T13:24:19.369Z,1.50
2022-11-14T13:26:49.526Z,1.23
2022-11-14T13:29:39.033Z,1.30
2022-11-14T13:32:13.220Z,1.25
2022-11-14T13:34:52.332Z,1.05
2022-11-14T13:37:29.052Z,1.10
2022-11-14T13:40:24.104Z,1.35
2022-11-14T13:43:06.334Z,1.30
2022-11-14T13:45:45.518Z,1.10
2022-11-14T13:48:27.929Z,1.10
2022-11-14T13:51:28.937Z,1.27
2022-11-14T13:53:54.496Z,1.20
2022-11-14T13:56:37.333Z,1.20
2022-11-14T13:59:21.924Z,1.23
2022-11-14T14:02:02.573Z,1.27
2022-11-14T14:04:32.761Z,1.15
2022-11-14T14:07:03.013Z,1.20
2022-11-14T14:09:43.467Z,1.50
2022-11-14T14:12:41.978Z,1.20
2022-11-14T14:15:25.843Z,1.50
2022-11-14T14:18:05.179Z,1.40
2022-11-14T14:20:36.834Z,1.40
2022-11-14T14:23:31.003Z,1.60
2022-11-14T14:26:23.352Z,1.58
2022-11-14T14:29:03.621Z,1.63
2022-11-14T14:31:42.119Z,1.27
2022-11-14T14:34:30.766Z,1.75
2022-11-14T14:36:58.932Z,1.67
2022-11-14T14:39:28.575Z,1.70
2022-11-14T14:41:58.428Z,2.00
2022-11-14T14:44:40.004Z,1.88
2022-11-14T14:47:17.606Z,1.58
2022-11-14T14:49:45.340Z,1.83
2022-11-14T14:52:31.809Z,1.67
2022-11-14T14:55:02.566Z,1.83
2022-11-14T14:57:30.611Z,1.83
2022-11-14T15:00:16.313Z,2.10
2022-11-14T15:02:44.271Z,1.95
2022-11-14T15:05:12.184Z,1.67
2022-11-14T15:07:40.452Z,2.53
2022-11-14T15:10:08.723Z,2.53
2022-11-14T15:12:36.407Z,1.90
2022-11-14T15:15:04.269Z,2.53
2022-11-14T15:17:35.611Z,1.73
2022-11-14T15:20:03.581Z,1.85
2022-11-14T15:22:31.533Z,2.00
2022-11-14T15:25:17.157Z,2.13
2022-11-14T15:27:53.720Z,1.98
2022-11-14T15:30:35.117Z,2.17
2022-11-14T15:33:25.103Z,2.30
2022-11-14T15:36:10.338Z,2.00
2022-11-14T15:38:44.029Z,2.63
2022-11-14T15:41:28.110Z,1.70
2022-11-14T15:44:01.969Z,2.30
2022-11-14T15:46:37.759Z,2.90
2022-11-14T15:49:19.666Z,2.53
2022-11-14T15:51:52.108Z,2.92
2022-11-14T15:54:26.373Z,2.53
2022-11-14T15:56:56.186Z,2.30
2022-11-14T15:59:23.869Z,3.17
2022-11-14T16:01:55.136Z,2.05
2022-11-14T16:04:28.382Z,2.25
2022-11-14T16:06:55.760Z,2.78
2022-11-14T16:09:23.796Z,2.53
2022-11-14T16:11:51.452Z,3.00
2022-11-14T16:14:18.842Z,2.70
2022-11-14T16:16:46.140Z,3.40
2022-11-14T16:19:15.591Z,2.78
2022-11-14T16:21:43.560Z,2.95
2022-11-14T16:24:18.904Z,2.35
2022-11-14T16:26:46.925Z,2.50
2022-11-14T16:29:15.272Z,2.83
2022-11-14T16:31:43.343Z,2.35
2022-11-14T16:34:16.076Z,2.30
2022-11-14T16:36:46.165Z,2.20
2022-11-14T16:39:14.303Z,2.17
2022-11-14T16:41:42.238Z,2.25
2022-11-14T16:44:15.742Z,2.33
2022-11-14T16:46:45.029Z,2.08
2022-11-14T16:49:14.870Z,1.98
2022-11-14T16:51:48.569Z,2.00
2022-11-14T16:54:20.642Z,2.25
2022-11-14T16:56:48.393Z,1.98
2022-11-14T16:59:16.082Z,2.15
2022-11-14T17:01:43.618Z,2.35
2022-11-14T17:04:11.121Z,1.83
2022-11-14T17:06:38.612Z,2.10
2022-11-14T17:09:06.083Z,2.03
2022-11-14T17:11:33.638Z,2.05
2022-11-14T17:14:01.368Z,2.25
2022-11-14T17:16:28.717Z,2.38
2022-11-14T17:18:56.364Z,1.98
2022-11-14T17:21:24.743Z,2.53
2022-11-14T17:24:01.506Z,2.00
2022-11-14T17:26:29.559Z,2.30
2022-11-14T17:28:57.010Z,2.10
2022-11-14T17:31:24.411Z,2.00
2022-11-14T17:33:53.117Z,2.03
2022-11-14T17:36:21.174Z,1.98
2022-11-14T17:38:48.817Z,2.75
2022-11-14T17:41:16.508Z,2.30
2022-11-14T17:43:44.263Z,2.25
2022-11-14T17:46:15.955Z,2.28
2022-11-14T17:48:44.712Z,2.20
2022-11-14T17:51:14.183Z,2.22
2022-11-14T17:53:42.537Z,2.00
2022-11-14T17:56:14.865Z,2.40
2022-11-14T17:58:42.911Z,1.75
2022-11-14T18:01:12.520Z,1.70
2022-11-14T18:03:40.059Z,2.03
2022-11-14T18:06:19.432Z,1.80
2022-11-14T18:08:47.171Z,2.20
2022-11-14T18:11:17.189Z,1.88
2022-11-14T18:13:44.682Z,2.20
2022-11-14T18:16:19.971Z,1.98
2022-11-14T18:18:47.684Z,1.70
2022-11-14T18:21:24.596Z,2.03
2022-11-14T18:23:54.335Z,1.60
2022-11-14T18:26:27.739Z,1.80
2022-11-14T18:29:01.131Z,1.58
2022-11-14T18:31:29.016Z,2.35
2022-11-14T18:33:56.930Z,2.00
2022-11-14T18:36:24.946Z,1.77
2022-11-14T18:38:52.425Z,1.50
2022-11-14T18:41:22.404Z,1.73
2022-11-14T18:43:53.618Z,1.40
2022-11-14T18:46:23.412Z,1.67
2022-11-14T18:54:16.029Z,2.42
2022-11-14T18:59:19.466Z,2.13
2022-11-14T19:01:46.998Z,2.03
2022-11-14T19:04:17.490Z,2.33
2022-11-14T19:06:45.134Z,2.30
2022-11-14T19:09:16.164Z,1.67
2022-11-14T19:14:20.319Z,2.15
2022-11-14T19:16:48.036Z,2.35
2022-11-14T19:19:15.478Z,2.10
2022-11-14T19:21:44.051Z,2.03
2022-11-14T19:24:11.485Z,2.10
2022-11-14T19:26:39.454Z,2.03
2022-11-14T19:29:10.917Z,2.05
2022-11-14T19:31:38.373Z,1.95
2022-11-14T19:34:06.049Z,2.38
2022-11-14T19:39:54.116Z,2.78
2022-11-14T19:42:21.909Z,1.95
2022-11-14T19:44:49.249Z,1.98
2022-11-14T19:47:16.691Z,2.10
2022-11-14T19:49:44.257Z,2.20
2022-11-14T19:52:11.824Z,2.25
2022-11-14T19:54:39.503Z,2.22
2022-11-14T19:57:07.053Z,2.03
2022-11-14T19:59:34.582Z,1.95
2022-11-14T20:02:02.521Z,1.80
2022-11-14T20:07:15.975Z,1.83
2022-11-14T20:09:43.408Z,2.00
2022-11-14T20:12:10.923Z,1.70
2022-11-14T20:14:38.446Z,1.58
2022-11-14T20:19:41.931Z,1.98
2022-11-14T20:22:10.507Z,1.77
2022-11-14T20:24:37.991Z,1.50
2022-11-14T20:27:05.497Z,1.90
2022-11-14T20:29:32.874Z,2.00
2022-11-14T20:32:00.563Z,1.63
2022-11-14T20:34:28.309Z,1.85
2022-11-14T20:37:10.561Z,2.08
2022-11-14T20:39:39.096Z,2.20
2022-11-14T20:42:06.473Z,1.73
2022-11-14T20:44:33.956Z,1.98
2022-11-14T20:47:01.444Z,2.33
2022-11-14T20:49:28.997Z,1.60
2022-11-14T20:51:56.357Z,1.80
2022-11-14T20:54:25.253Z,1.70
2022-11-14T20:59:29.026Z,1.80
2022-11-14T21:04:32.549Z,1.80
2022-11-14T21:07:00.070Z,2.15
2022-11-14T21:09:27.627Z,1.80
2022-11-14T21:14:40.914Z,1.85
2022-11-14T21:17:08.417Z,2.03
2022-11-14T21:19:36.168Z,1.92
2022-11-14T21:22:03.538Z,2.10
2022-11-14T21:24:31.488Z,2.22
2022-11-14T21:32:27.657Z,2.50
2022-11-14T21:34:55.197Z,2.17
2022-11-14T21:37:22.513Z,2.40
2022-11-14T21:40:12.237Z,2.80
2022-11-14T22:10:06.600Z,2.80
2022-11-14T22:12:35.384Z,2.97
